Time;durP1;ratioP1;P1;durP2;ratioP2;P2;SDS_P1;SDS_P2;PMS_P1;PMS_P2;Temp;Humidity;BMP_temperature;BMP_pressure;BME280_temperature;BME280_humidity;BME280_pressure;Samples;Min_cycle;Max_cycle;Signal;HPM_P1;HPM_P2
2021/05/24 00:00:12;;;;;;;0.10;0.10;;;15.10;82.00;;;;;;4176402;28;20466;-47
2021/05/24 00:02:33;;;;;;;0.10;0.10;;;15.00;82.00;;;;;;4176539;28;20052;-46
2021/05/24 00:04:56;;;;;;;0.03;0.03;;;15.00;81.90;;;;;;4176661;28;20067;-44
2021/05/24 00:07:17;;;;;;;0.00;0.00;;;15.10;82.00;;;;;;4176703;28;20071;-47
2021/05/24 00:09:39;;;;;;;0.00;0.00;;;15.00;81.80;;;;;;4176025;28;20483;-48
2021/05/24 00:12:02;;;;;;;0.57;0.57;;;15.00;81.80;;;;;;4145107;28;20504;-45
2021/05/24 00:14:26;;;;;;;0.80;0.30;;;15.00;81.80;;;;;;4144630;28;20081;-47
2021/05/24 00:16:48;;;;;;;0.00;0.00;;;15.00;81.80;;;;;;4148144;28;20037;-51
2021/05/24 00:19:09;;;;;;;0.00;0.00;;;15.00;81.80;;;;;;4159833;28;20073;-47
2021/05/24 00:21:32;;;;;;;0.00;0.00;;;15.00;81.90;;;;;;4161434;28;20099;-49
2021/05/24 00:23:53;;;;;;;0.03;0.03;;;15.00;81.90;;;;;;4176580;28;20056;-44
2021/05/24 00:26:15;;;;;;;0.00;0.00;;;15.00;81.90;;;;;;4176383;28;20052;-45
2021/05/24 00:28:36;;;;;;;0.35;0.35;;;15.00;81.90;;;;;;4152454;28;20053;-46
2021/05/24 00:30:58;;;;;;;0.00;0.00;;;15.00;82.00;;;;;;4160239;28;20080;-47
2021/05/24 00:33:20;;;;;;;0.00;0.00;;;15.00;82.00;;;;;;4167730;28;20481;-48
2021/05/24 00:35:42;;;;;;;0.00;0.00;;;15.00;82.10;;;;;;4176386;28;20053;-45
2021/05/24 00:38:06;;;;;;;0.30;0.30;;;15.00;82.10;;;;;;4169329;28;20107;-47
2021/05/24 00:40:28;;;;;;;0.30;0.30;;;15.00;82.20;;;;;;4159727;28;20132;-45
2021/05/24 00:42:50;;;;;;;0.17;0.17;;;15.00;82.20;;;;;;4159680;28;20496;-46
2021/05/24 00:45:12;;;;;;;0.00;0.00;;;15.00;82.20;;;;;;4159571;28;20076;-45
2021/05/24 00:47:34;;;;;;;0.70;0.70;;;15.00;82.20;;;;;;4162155;28;20053;-46
2021/05/24 00:49:56;;;;;;;0.00;0.00;;;15.00;82.30;;;;;;4159360;28;20033;-45
2021/05/24 00:52:17;;;;;;;0.00;0.00;;;15.00;82.30;;;;;;4159672;28;20052;-45
2021/05/24 00:54:41;;;;;;;0.00;0.00;;;15.00;82.40;;;;;;4159393;28;20546;-46
2021/05/24 00:57:02;;;;;;;0.00;0.00;;;15.00;83.30;;;;;;4158979;28;20455;-47
2021/05/24 00:59:25;;;;;;;0.00;0.00;;;15.00;82.40;;;;;;4176148;28;20055;-46
2021/05/24 01:01:47;;;;;;;4.47;1.20;;;15.00;82.40;;;;;;4175916;28;20135;-46
2021/05/24 01:04:10;;;;;;;0.00;0.00;;;15.00;82.40;;;;;;4158031;28;20045;-50
2021/05/24 01:06:31;;;;;;;0.00;0.00;;;15.00;82.40;;;;;;4146165;28;20056;-50
2021/05/24 01:08:53;;;;;;;0.00;0.00;;;15.00;82.50;;;;;;4174961;28;20052;-45
2021/05/24 01:11:15;;;;;;;0.00;0.00;;;15.00;82.50;;;;;;4174361;28;20068;-44
2021/05/24 01:13:37;;;;;;;0.00;0.00;;;15.00;82.60;;;;;;4175513;28;20044;-47
2021/05/24 01:15:58;;;;;;;0.00;0.00;;;15.00;82.60;;;;;;4175446;28;20057;-48
2021/05/24 01:18:20;;;;;;;0.20;0.20;;;14.90;82.60;;;;;;4171663;28;20049;-46
2021/05/24 01:20:42;;;;;;;0.00;0.00;;;15.00;83.60;;;;;;4174291;28;20095;-47
2021/05/24 01:23:09;;;;;;;0.05;0.05;;;15.00;82.80;;;;;;4175518;28;20045;-47
2021/05/24 01:25:32;;;;;;;0.00;0.00;;;14.90;82.80;;;;;;4174157;28;20049;-45
2021/05/24 01:27:54;;;;;;;0.10;0.10;;;15.00;82.80;;;;;;4174374;28;20037;-45
2021/05/24 01:30:16;;;;;;;0.35;0.35;;;14.90;82.70;;;;;;4175547;28;20453;-49
2021/05/24 01:32:38;;;;;;;0.03;0.03;;;15.00;82.70;;;;;;4175265;28;20132;-50
2021/05/24 01:35:00;;;;;;;0.00;0.00;;;14.90;82.60;;;;;;4169672;28;20061;-46
2021/05/24 01:37:22;;;;;;;0.10;0.10;;;14.90;82.70;;;;;;4171807;28;20094;-45
2021/05/24 01:39:44;;;;;;;;;;;15.00;82.80;;;;;;4175818;28;20056;-45
2021/05/24 01:42:06;;;;;;;0.20;0.20;;;14.90;82.80;;;;;;4175357;28;20013;-46
2021/05/24 01:44:30;;;;;;;0.00;0.00;;;14.90;82.80;;;;;;4174532;28;20103;-46
2021/05/24 01:46:52;;;;;;;0.10;0.10;;;14.90;82.90;;;;;;4174463;28;20046;-49
2021/05/24 01:49:14;;;;;;;0.00;0.00;;;14.90;82.90;;;;;;4158867;28;20045;-48
2021/05/24 01:51:35;;;;;;;0.10;0.10;;;14.90;83.00;;;;;;4158440;28;20056;-46
2021/05/24 01:53:57;;;;;;;0.00;0.00;;;14.90;83.10;;;;;;4160900;28;20069;-47
2021/05/24 01:56:22;;;;;;;0.00;0.00;;;14.90;83.10;;;;;;4158674;28;20072;-47
2021/05/24 01:58:44;;;;;;;0.00;0.00;;;14.90;83.10;;;;;;4158542;28;20107;-47
2021/05/24 02:01:07;;;;;;;0.00;0.00;;;14.90;83.20;;;;;;4158473;28;20127;-47
2021/05/24 02:03:29;;;;;;;0.00;0.00;;;14.90;83.20;;;;;;4168592;28;20132;-45
2021/05/24 02:05:51;;;;;;;0.00;0.00;;;14.90;83.90;;;;;;4158439;28;20103;-45
2021/05/24 02:08:12;;;;;;;0.60;0.60;;;14.90;83.30;;;;;;4158421;28;20533;-47
2021/05/24 02:10:36;;;;;;;0.00;0.00;;;14.90;83.30;;;;;;4158462;28;20111;-46
2021/05/24 02:12:59;;;;;;;0.13;0.13;;;14.90;83.30;;;;;;4150571;28;20129;-49
2021/05/24 02:15:23;;;;;;;0.00;0.00;;;14.90;83.40;;;;;;4169919;28;20060;-45
2021/05/24 02:17:44;;;;;;;0.20;0.20;;;14.90;83.30;;;;;;4174291;28;20057;-45
2021/05/24 02:20:08;;;;;;;0.10;0.10;;;14.90;83.30;;;;;;4174899;28;20132;-49
2021/05/24 02:22:29;;;;;;;0.00;0.00;;;14.90;83.90;;;;;;4173837;28;20491;-46
2021/05/24 02:24:51;;;;;;;;;;;14.80;83.30;;;;;;4163760;28;20041;-45
2021/05/24 02:27:12;;;;;;;;;;;14.80;83.30;;;;;;4159054;28;20337;-45
2021/05/24 02:29:35;;;;;;;0.00;0.00;;;14.80;83.50;;;;;;4158180;28;20334;-44
2021/05/24 02:31:56;;;;;;;0.00;0.00;;;14.80;83.40;;;;;;4157974;28;20053;-48
2021/05/24 02:34:17;;;;;;;;;;;14.80;83.40;;;;;;4162388;28;20045;-46
2021/05/24 02:36:39;;;;;;;0.98;0.38;;;14.80;83.60;;;;;;4174407;28;20375;-46
2021/05/24 02:39:03;;;;;;;0.10;0.10;;;14.80;83.60;;;;;;4174041;28;20055;-47
2021/05/24 02:41:25;;;;;;;0.00;0.00;;;14.80;83.60;;;;;;4174509;28;20107;-47
2021/05/24 02:43:46;;;;;;;0.00;0.00;;;14.80;83.60;;;;;;4169475;28;20057;-48
2021/05/24 02:46:11;;;;;;;0.00;0.00;;;14.80;83.70;;;;;;4157840;28;20527;-46
2021/05/24 02:48:33;;;;;;;0.00;0.00;;;14.80;83.70;;;;;;4158454;28;20095;-46
2021/05/24 02:50:55;;;;;;;0.00;0.00;;;14.80;84.60;;;;;;4157854;28;20150;-45
2021/05/24 02:53:17;;;;;;;0.00;0.00;;;14.80;83.70;;;;;;4160670;28;20480;-47
2021/05/24 02:55:39;;;;;;;0.10;0.10;;;14.80;83.80;;;;;;4158015;28;20057;-49
2021/05/24 02:58:01;;;;;;;0.00;0.00;;;14.80;83.80;;;;;;4158187;28;20061;-47
2021/05/24 03:00:26;;;;;;;4.38;2.20;;;14.80;83.80;;;;;;4158149;28;20132;-45
2021/05/24 03:02:49;;;;;;;0.05;0.05;;;14.80;83.90;;;;;;4156960;28;20056;-49
2021/05/24 03:05:12;;;;;;;0.00;0.00;;;14.80;83.80;;;;;;4158014;28;20524;-51
2021/05/24 03:07:34;;;;;;;0.00;0.00;;;14.80;83.80;;;;;;4157812;28;20500;-49
2021/05/24 03:09:56;;;;;;;0.00;0.00;;;14.80;83.70;;;;;;4158338;28;20045;-49
2021/05/24 03:12:18;;;;;;;0.38;0.38;;;14.80;83.70;;;;;;4157724;28;20328;-50
2021/05/24 03:14:40;;;;;;;0.00;0.00;;;14.70;83.70;;;;;;4174250;28;20148;-48
2021/05/24 03:17:02;;;;;;;0.28;0.28;;;14.80;83.80;;;;;;4177447;28;20111;-47
2021/05/24 03:19:24;;;;;;;0.00;0.00;;;14.70;83.70;;;;;;4177512;28;20759;-46
2021/05/24 03:21:47;;;;;;;0.00;0.00;;;14.80;83.90;;;;;;4161761;28;20053;-46
2021/05/24 03:24:09;;;;;;;0.00;0.00;;;14.80;84.00;;;;;;4170232;28;20060;-48
2021/05/24 03:26:30;;;;;;;0.00;0.00;;;14.80;84.00;;;;;;4177482;28;20499;-47
2021/05/24 03:28:52;;;;;;;0.00;0.00;;;14.70;83.90;;;;;;4177291;28;20564;-47
2021/05/24 03:31:13;;;;;;;0.10;0.10;;;14.70;84.00;;;;;;4175682;28;20161;-45
2021/05/24 03:33:35;;;;;;;0.00;0.00;;;14.70;84.00;;;;;;4166968;28;20049;-45
2021/05/24 03:35:57;;;;;;;0.20;0.20;;;14.80;84.20;;;;;;4160814;28;20602;-46
2021/05/24 03:38:19;;;;;;;0.00;0.00;;;14.70;84.10;;;;;;4160801;28;20059;-46
2021/05/24 03:40:41;;;;;;;0.00;0.00;;;14.80;84.20;;;;;;4160667;28;20045;-48
2021/05/24 03:43:04;;;;;;;0.00;0.00;;;14.70;84.10;;;;;;4158344;28;20053;-46
2021/05/24 03:45:27;;;;;;;0.13;0.13;;;14.80;84.20;;;;;;4160062;28;20057;-48
2021/05/24 03:47:49;;;;;;;0.10;0.10;;;14.70;84.10;;;;;;4160180;28;20051;-46
2021/05/24 03:50:12;;;;;;;0.00;0.00;;;14.70;84.00;;;;;;4177245;28;20506;-46
2021/05/24 03:52:35;;;;;;;0.10;0.10;;;14.70;84.10;;;;;;4176410;28;20048;-48
2021/05/24 03:54:57;;;;;;;0.00;0.00;;;14.70;84.00;;;;;;4176893;28;20049;-48
2021/05/24 03:57:19;;;;;;;0.10;0.10;;;14.70;84.00;;;;;;4176558;28;20060;-47
2021/05/24 03:59:40;;;;;;;0.00;0.00;;;14.70;84.10;;;;;;4176679;28;20049;-48
2021/05/24 04:02:02;;;;;;;0.00;0.00;;;14.70;84.00;;;;;;4173378;28;20060;-44
2021/05/24 04:04:24;;;;;;;0.00;0.00;;;14.70;84.00;;;;;;4162509;28;20132;-46
2021/05/24 04:06:51;;;;;;;0.10;0.10;;;14.70;84.00;;;;;;4176644;28;20049;-46
2021/05/24 04:09:14;;;;;;;0.00;0.00;;;14.70;84.00;;;;;;4159073;28;20488;-44
2021/05/24 04:11:36;;;;;;;0.00;0.00;;;14.70;84.00;;;;;;4160210;28;20392;-49
2021/05/24 04:13:57;;;;;;;0.00;0.00;;;14.70;84.10;;;;;;4160335;28;20492;-49
2021/05/24 04:16:19;;;;;;;0.00;0.00;;;14.70;84.00;;;;;;4160111;28;21141;-47
2021/05/24 04:18:44;;;;;;;0.00;0.00;;;14.70;84.20;;;;;;4160196;28;20510;-46
2021/05/24 04:21:06;;;;;;;0.60;0.60;;;14.70;84.00;;;;;;4158313;28;20136;-50
2021/05/24 04:23:28;;;;;;;0.00;0.00;;;14.70;84.00;;;;;;4160463;28;20554;-49
2021/05/24 04:25:51;;;;;;;0.22;0.22;;;14.70;84.10;;;;;;4170445;28;20118;-49
2021/05/24 04:28:13;;;;;;;0.00;0.00;;;14.70;84.00;;;;;;4176315;28;20052;-46
2021/05/24 04:30:34;;;;;;;0.00;0.00;;;14.70;85.00;;;;;;4176101;28;20053;-48
2021/05/24 04:32:56;;;;;;;0.00;0.00;;;14.70;84.20;;;;;;4175696;28;20055;-48
2021/05/24 04:35:18;;;;;;;0.00;0.00;;;14.70;84.80;;;;;;4176225;28;20064;-46
2021/05/24 04:37:39;;;;;;;0.00;0.00;;;14.70;84.70;;;;;;4166115;28;20671;-46
2021/05/24 04:40:01;;;;;;;;;;;14.70;84.60;;;;;;4160368;28;20518;-45
2021/05/24 04:42:23;;;;;;;0.00;0.00;;;14.70;85.30;;;;;;4159481;28;19921;-45
2021/05/24 04:44:45;;;;;;;5.78;2.35;;;14.70;85.00;;;;;;4159570;28;20566;-49
2021/05/24 04:47:07;;;;;;;0.00;0.00;;;14.70;85.00;;;;;;4156861;28;20056;-46
2021/05/24 04:49:31;;;;;;;0.00;0.00;;;14.70;85.00;;;;;;4159023;28;20053;-45
2021/05/24 04:51:53;;;;;;;0.00;0.00;;;14.70;84.80;;;;;;4163950;28;20072;-48
2021/05/24 04:54:14;;;;;;;0.00;0.00;;;14.70;84.90;;;;;;4164919;28;20055;-45
2021/05/24 04:56:36;;;;;;;;;;;14.70;85.00;;;;;;4159990;28;20495;-48
2021/05/24 04:58:58;;;;;;;0.00;0.00;;;14.70;85.00;;;;;;4159369;28;19921;-46
2021/05/24 05:01:19;;;;;;;0.00;0.00;;;14.70;85.10;;;;;;4159495;28;20052;-45
2021/05/24 05:03:41;;;;;;;0.20;0.20;;;14.70;84.90;;;;;;4159399;28;20053;-46
2021/05/24 05:06:03;;;;;;;0.05;0.05;;;14.70;85.00;;;;;;4159342;28;20053;-48
2021/05/24 05:08:24;;;;;;;0.00;0.00;;;14.70;85.00;;;;;;4160224;28;20490;-48
2021/05/24 05:10:47;;;;;;;0.35;0.35;;;14.70;85.10;;;;;;4168453;28;20473;-50
2021/05/24 05:13:09;;;;;;;0.20;0.20;;;14.70;85.10;;;;;;4175287;28;20119;-46
2021/05/24 05:15:32;;;;;;;0.00;0.00;;;14.70;85.10;;;;;;4175572;28;20056;-44
2021/05/24 05:17:54;;;;;;;0.00;0.00;;;14.70;85.10;;;;;;4175532;28;20056;-48
2021/05/24 05:20:16;;;;;;;0.00;0.00;;;14.70;85.20;;;;;;4170567;28;20041;-48
2021/05/24 05:22:37;;;;;;;0.00;0.00;;;14.70;85.30;;;;;;4158733;28;20077;-46
2021/05/24 05:24:58;;;;;;;;;;;14.70;85.40;;;;;;4158134;28;20095;-50
2021/05/24 05:27:20;;;;;;;4.40;2.35;;;14.80;85.70;;;;;;4159180;28;19932;-45
2021/05/24 05:29:41;;;;;;;;;;;14.80;86.40;;;;;;4159760;28;20698;-44
2021/05/24 05:32:04;;;;;;;;;;;14.80;86.20;;;;;;4160720;28;19951;-47
2021/05/24 05:34:26;;;;;;;0.00;0.00;;;14.80;85.90;;;;;;4154098;28;19925;-46
2021/05/24 05:36:47;;;;;;;0.73;0.73;;;14.80;85.60;;;;;;4175377;28;20041;-44
2021/05/24 05:39:09;;;;;;;6.63;2.55;;;14.80;85.50;;;;;;4174231;28;20410;-45
2021/05/24 05:41:31;;;;;;;0.00;0.00;;;14.80;85.50;;;;;;4174858;28;20128;-47
2021/05/24 05:43:53;;;;;;;0.00;0.00;;;14.80;85.60;;;;;;4173597;28;20049;-47
2021/05/24 05:46:14;;;;;;;0.00;0.00;;;14.80;85.50;;;;;;4173593;28;20055;-44
2021/05/24 05:48:37;;;;;;;0.00;0.00;;;14.80;85.60;;;;;;4172461;28;20450;-47
2021/05/24 05:50:58;;;;;;;0.00;0.00;;;14.80;85.60;;;;;;4173646;28;20056;-45
2021/05/24 05:53:20;;;;;;;0.00;0.00;;;14.80;85.50;;;;;;4173340;28;21169;-47
2021/05/24 05:55:42;;;;;;;0.55;0.35;;;14.80;85.60;;;;;;4158661;28;20068;-45
2021/05/24 05:58:03;;;;;;;0.10;0.10;;;14.80;85.60;;;;;;4167372;28;20044;-47
2021/05/24 06:00:25;;;;;;;0.00;0.00;;;14.80;85.70;;;;;;4175023;28;20151;-46
2021/05/24 06:02:47;;;;;;;1.75;1.15;;;14.80;86.60;;;;;;4163331;28;20057;-45
2021/05/24 06:05:11;;;;;;;0.00;0.00;;;14.70;85.70;;;;;;4174763;28;20106;-48
2021/05/24 06:07:33;;;;;;;0.00;0.00;;;14.80;85.80;;;;;;4167362;28;20123;-46
2021/05/24 06:09:55;;;;;;;0.20;0.20;;;14.80;85.80;;;;;;4158323;28;20136;-47
2021/05/24 06:12:17;;;;;;;0.00;0.00;;;14.80;85.80;;;;;;4158819;28;20049;-46
2021/05/24 06:14:39;;;;;;;0.00;0.00;;;14.80;85.90;;;;;;4158332;28;20408;-46
2021/05/24 06:17:00;;;;;;;0.25;0.25;;;14.80;86.10;;;;;;4163366;28;20637;-47
2021/05/24 06:19:22;;;;;;;0.00;0.00;;;14.80;86.00;;;;;;4174656;28;20415;-46
2021/05/24 06:21:45;;;;;;;0.00;0.00;;;14.80;86.00;;;;;;4174357;28;20053;-47
2021/05/24 06:24:07;;;;;;;0.10;0.10;;;14.80;85.90;;;;;;4174695;28;20495;-46
2021/05/24 06:26:29;;;;;;;0.00;0.00;;;14.80;85.90;;;;;;4173240;28;20049;-48
2021/05/24 06:28:50;;;;;;;0.00;0.00;;;14.80;85.80;;;;;;4158083;28;20072;-47
2021/05/24 06:31:12;;;;;;;0.00;0.00;;;14.90;85.70;;;;;;4169475;28;20075;-46
2021/05/24 06:33:33;;;;;;;0.00;0.00;;;14.80;85.60;;;;;;4174319;28;20069;-45
2021/05/24 06:35:55;;;;;;;0.00;0.00;;;14.90;85.50;;;;;;4172865;28;20107;-44
2021/05/24 06:38:17;;;;;;;0.00;0.00;;;14.90;85.30;;;;;;4165763;28;20528;-45
2021/05/24 06:40:39;;;;;;;0.15;0.15;;;14.90;85.20;;;;;;4157983;28;20045;-46
2021/05/24 06:43:01;;;;;;;0.00;0.00;;;14.90;85.20;;;;;;4162025;28;20053;-47
2021/05/24 06:45:22;;;;;;;0.00;0.00;;;14.90;85.10;;;;;;4165649;28;20520;-51
2021/05/24 06:47:44;;;;;;;0.80;0.80;;;14.90;85.00;;;;;;4173177;28;20048;-49
2021/05/24 06:50:07;;;;;;;0.00;0.00;;;14.90;84.90;;;;;;4175274;28;20095;-46
2021/05/24 06:52:28;;;;;;;0.00;0.00;;;14.90;84.90;;;;;;4176205;28;20057;-45
2021/05/24 06:54:50;;;;;;;0.00;0.00;;;14.90;85.70;;;;;;4177887;28;20418;-45
2021/05/24 06:57:12;;;;;;;0.00;0.00;;;14.90;84.80;;;;;;4177730;28;20091;-45
2021/05/24 06:59:35;;;;;;;0.22;0.22;;;14.90;84.80;;;;;;4177490;28;20444;-46
2021/05/24 07:01:57;;;;;;;0.00;0.00;;;14.90;84.70;;;;;;4170834;28;20041;-47
2021/05/24 07:04:19;;;;;;;0.47;0.47;;;14.90;84.70;;;;;;4177501;28;20053;-47
2021/05/24 07:06:40;;;;;;;0.00;0.00;;;14.90;84.60;;;;;;4177576;28;20051;-46
2021/05/24 07:09:03;;;;;;;0.00;0.00;;;14.90;84.60;;;;;;4169863;28;20137;-51
2021/05/24 07:11:25;;;;;;;0.03;0.03;;;15.00;84.60;;;;;;4177660;28;20118;-47
2021/05/24 07:13:47;;;;;;;0.00;0.00;;;15.00;84.50;;;;;;4177371;28;20044;-46
2021/05/24 07:16:08;;;;;;;0.00;0.00;;;15.00;84.50;;;;;;4175971;28;20049;-49
2021/05/24 07:18:30;;;;;;;0.00;0.00;;;15.00;84.50;;;;;;4162933;28;20072;-51
2021/05/24 07:20:51;;;;;;;;;;;15.00;84.50;;;;;;4160741;28;20049;-50
2021/05/24 07:23:14;;;;;;;0.00;0.00;;;15.00;84.40;;;;;;4165052;28;20367;-47
2021/05/24 07:25:36;;;;;;;0.00;0.00;;;15.00;84.40;;;;;;4177266;28;20068;-47
2021/05/24 07:27:58;;;;;;;0.10;0.10;;;15.00;84.40;;;;;;4157788;28;20591;-48
2021/05/24 07:30:20;;;;;;;0.00;0.00;;;15.00;84.30;;;;;;4160888;28;20049;-48
2021/05/24 07:32:42;;;;;;;0.50;0.50;;;15.00;84.30;;;;;;4175216;28;20075;-52
2021/05/24 07:35:05;;;;;;;0.00;0.00;;;15.10;84.40;;;;;;4177258;28;20573;-50
2021/05/24 07:37:26;;;;;;;0.08;0.08;;;15.10;84.40;;;;;;4159034;28;20045;-48
2021/05/24 07:39:48;;;;;;;0.20;0.20;;;15.20;84.30;;;;;;4160485;28;20066;-45
2021/05/24 07:42:10;;;;;;;0.00;0.00;;;15.20;84.00;;;;;;4170493;28;20568;-50
2021/05/24 07:44:33;;;;;;;;;;;15.30;83.70;;;;;;4177883;28;20059;-53
2021/05/24 07:46:55;;;;;;;0.00;0.00;;;15.30;83.40;;;;;;4176387;28;20383;-47
2021/05/24 07:49:18;;;;;;;0.00;0.00;;;15.40;83.20;;;;;;4176941;28;20561;-49
2021/05/24 07:51:42;;;;;;;0.00;0.00;;;15.40;82.90;;;;;;4163737;28;20045;-48
2021/05/24 07:54:04;;;;;;;0.00;0.00;;;15.50;82.70;;;;;;4176421;28;20048;-44
2021/05/24 07:56:26;;;;;;;0.20;0.20;;;15.50;82.50;;;;;;4176817;28;20560;-50
2021/05/24 07:58:48;;;;;;;0.13;0.13;;;15.60;82.30;;;;;;4176767;28;20045;-49
2021/05/24 08:01:11;;;;;;;0.00;0.00;;;15.60;82.10;;;;;;4175289;28;20060;-48
2021/05/24 08:03:32;;;;;;;0.10;0.10;;;15.70;82.00;;;;;;4176042;28;20410;-45
2021/05/24 08:05:54;;;;;;;0.00;0.00;;;15.70;81.80;;;;;;4176679;28;20077;-47
2021/05/24 08:08:15;;;;;;;;;;;15.70;81.60;;;;;;4177078;28;20419;-47
2021/05/24 08:10:36;;;;;;;0.00;0.00;;;15.80;81.60;;;;;;4176741;28;19931;-46
2021/05/24 08:12:58;;;;;;;0.63;0.55;;;15.80;81.60;;;;;;4175856;28;20495;-45
2021/05/24 08:15:29;;;;;;;0.00;0.00;;;15.80;81.50;;;;;;4176438;28;20049;-48
2021/05/24 08:17:52;;;;;;;0.13;0.13;;;15.80;81.40;;;;;;4164529;28;20140;-48
2021/05/24 08:20:15;;;;;;;0.00;0.00;;;15.80;82.20;;;;;;4173479;28;20418;-44
2021/05/24 08:22:37;;;;;;;0.00;0.00;;;15.80;81.20;;;;;;4167803;28;20179;-46
2021/05/24 08:24:59;;;;;;;0.00;0.00;;;15.90;81.30;;;;;;4169029;28;20053;-45
2021/05/24 08:27:20;;;;;;;;;;;15.90;81.10;;;;;;4161131;28;20069;-51
2021/05/24 08:29:54;;;;;;;0.00;0.00;;;15.90;81.00;;;;;;4159513;28;20367;-47
2021/05/24 08:32:16;;;;;;;0.00;0.00;;;15.90;80.80;;;;;;4159842;28;20054;-46
2021/05/24 08:34:43;;;;;;;0.00;0.00;;;15.90;81.60;;;;;;4159742;28;20474;-45
2021/05/24 08:37:04;;;;;;;0.00;0.00;;;16.00;80.80;;;;;;4160802;28;20057;-47
2021/05/24 08:39:26;;;;;;;0.00;0.00;;;15.90;80.80;;;;;;4159879;28;20480;-46
2021/05/24 08:41:49;;;;;;;0.00;0.00;;;16.00;80.80;;;;;;4159716;28;20132;-49
2021/05/24 08:44:10;;;;;;;0.00;0.00;;;15.90;80.80;;;;;;4159776;28;20128;-47
2021/05/24 08:46:32;;;;;;;0.20;0.20;;;16.00;80.80;;;;;;4167293;28;20052;-46
2021/05/24 08:48:54;;;;;;;0.00;0.00;;;16.00;80.70;;;;;;4176253;28;20495;-45
2021/05/24 08:51:17;;;;;;;0.00;0.00;;;16.00;80.80;;;;;;4176228;28;20052;-47
2021/05/24 08:53:39;;;;;;;0.00;0.00;;;16.00;80.80;;;;;;4161286;28;20140;-49
2021/05/24 08:56:01;;;;;;;0.00;0.00;;;16.00;80.80;;;;;;4160656;28;20056;-47
2021/05/24 08:58:23;;;;;;;0.00;0.00;;;16.00;80.50;;;;;;4159233;28;20041;-47
2021/05/24 09:00:44;;;;;;;0.00;0.00;;;16.00;80.30;;;;;;4162524;28;20045;-50
2021/05/24 09:03:14;;;;;;;;;;;16.00;79.80;;;;;;4176158;28;20056;-46
2021/05/24 09:05:36;;;;;;;0.00;0.00;;;16.00;79.20;;;;;;4175704;28;20050;-45
2021/05/24 09:08:00;;;;;;;0.00;0.00;;;16.00;78.90;;;;;;4175773;28;20041;-48
2021/05/24 09:10:24;;;;;;;0.00;0.00;;;16.00;78.30;;;;;;4175357;28;20461;-49
2021/05/24 09:12:46;;;;;;;0.00;0.00;;;16.00;78.20;;;;;;4161959;28;20135;-47
2021/05/24 09:15:11;;;;;;;0.08;0.08;;;16.00;78.10;;;;;;4171390;28;20053;-47
2021/05/24 09:17:43;;;;;;;0.00;0.00;;;16.00;78.10;;;;;;4159218;28;20495;-48
2021/05/24 09:20:15;;;;;;;0.10;0.10;;;16.00;78.20;;;;;;4159334;28;20381;-45
2021/05/24 09:22:36;;;;;;;0.10;0.10;;;16.00;78.40;;;;;;4156148;28;20068;-47
2021/05/24 09:24:59;;;;;;;0.00;0.00;;;16.00;78.80;;;;;;4168393;28;20507;-46
2021/05/24 09:27:28;;;;;;;0.00;0.00;;;16.00;78.80;;;;;;4175304;28;20071;-47
2021/05/24 09:29:52;;;;;;;0.00;0.00;;;16.00;79.00;;;;;;4175161;28;20422;-46
2021/05/24 09:32:16;;;;;;;0.00;0.00;;;16.00;79.00;;;;;;4158769;28;20049;-47
2021/05/24 09:34:38;;;;;;;0.00;0.00;;;16.00;79.00;;;;;;4158933;28;20411;-46
2021/05/24 09:37:00;;;;;;;0.00;0.00;;;16.00;78.80;;;;;;4157362;28;20053;-45
2021/05/24 09:39:31;;;;;;;0.00;0.00;;;16.10;79.90;;;;;;4159038;28;20392;-45
2021/05/24 09:41:57;;;;;;;0.00;0.00;;;16.10;79.00;;;;;;4172536;28;20068;-49
2021/05/24 09:44:20;;;;;;;0.00;0.00;;;16.10;79.10;;;;;;4174880;28;20060;-50
2021/05/24 09:46:41;;;;;;;0.00;0.00;;;16.10;79.10;;;;;;4161228;28;20050;-49
2021/05/24 09:49:04;;;;;;;0.00;0.00;;;16.10;80.10;;;;;;4158672;28;20080;-45
2021/05/24 09:51:27;;;;;;;0.00;0.00;;;16.10;79.30;;;;;;4159648;28;20711;-52
2021/05/24 09:53:58;;;;;;;0.00;0.00;;;16.00;79.30;;;;;;4158594;28;20052;-53
2021/05/24 09:56:20;;;;;;;0.00;0.00;;;16.00;79.30;;;;;;4170799;28;20462;-48
2021/05/24 09:58:42;;;;;;;0.00;0.00;;;16.00;79.30;;;;;;4158566;28;20053;-47
2021/05/24 10:01:16;;;;;;;0.00;0.00;;;16.00;79.30;;;;;;4167616;28;20056;-47
2021/05/24 10:03:38;;;;;;;0.00;0.00;;;16.00;79.20;;;;;;4174741;28;20041;-46
2021/05/24 10:05:59;;;;;;;;;;;16.00;79.00;;;;;;4175310;28;20091;-47
2021/05/24 10:08:21;;;;;;;0.00;0.00;;;15.90;79.90;;;;;;4174743;28;19920;-45
2021/05/24 10:10:43;;;;;;;0.43;0.43;;;15.90;79.10;;;;;;4164925;28;20052;-46
2021/05/24 10:13:06;;;;;;;0.57;0.57;;;15.90;79.10;;;;;;4158322;28;20053;-45
2021/05/24 10:15:29;;;;;;;0.00;0.00;;;15.90;79.30;;;;;;4163169;28;20049;-44
2021/05/24 10:17:58;;;;;;;0.00;0.00;;;15.90;79.50;;;;;;4174857;28;20107;-45
2021/05/24 10:20:20;;;;;;;0.00;0.00;;;15.80;79.50;;;;;;4167766;28;20052;-49
2021/05/24 10:22:42;;;;;;;0.30;0.30;;;15.90;79.80;;;;;;4158190;28;20045;-46
2021/05/24 10:25:04;;;;;;;0.00;0.00;;;15.80;80.00;;;;;;4167857;28;20049;-49
2021/05/24 10:27:27;;;;;;;0.00;0.00;;;15.80;80.30;;;;;;4158267;28;20515;-47
2021/05/24 10:29:49;;;;;;;0.00;0.00;;;15.80;80.60;;;;;;4159438;28;20050;-47
2021/05/24 10:32:21;;;;;;;0.00;0.00;;;15.80;80.70;;;;;;4158208;28;21624;-47
2021/05/24 10:34:43;;;;;;;0.00;0.00;;;15.80;80.70;;;;;;4155789;28;20045;-50
2021/05/24 10:37:07;;;;;;;0.00;0.00;;;15.80;80.80;;;;;;4159549;28;20049;-46
2021/05/24 10:39:28;;;;;;;0.00;0.00;;;15.80;81.00;;;;;;4174443;28;20045;-49
2021/05/24 10:41:59;;;;;;;0.00;0.00;;;15.70;80.90;;;;;;4174418;28;20059;-47
2021/05/24 10:44:22;;;;;;;0.10;0.10;;;15.70;80.90;;;;;;4174583;28;20049;-46
2021/05/24 10:46:45;;;;;;;0.00;0.00;;;15.70;81.00;;;;;;4174482;28;20131;-48
2021/05/24 10:49:17;;;;;;;0.20;0.20;;;15.70;81.20;;;;;;4174560;28;20142;-48
2021/05/24 10:52:04;;;;;;;0.00;0.00;;;15.70;81.20;;;;;;4174009;28;20073;-48
2021/05/24 10:54:29;;;;;;;0.00;0.00;;;15.70;81.30;;;;;;4172836;28;20139;-47
2021/05/24 10:57:12;;;;;;;0.00;0.00;;;15.70;81.40;;;;;;4171022;28;20056;-47
2021/05/24 10:59:55;;;;;;;0.00;0.00;;;15.70;81.50;;;;;;4142680;28;20046;-49
2021/05/24 11:02:24;;;;;;;0.20;0.20;;;15.70;82.50;;;;;;4149571;28;20379;-48
2021/05/24 11:04:52;;;;;;;0.00;0.00;;;15.70;81.70;;;;;;4157206;28;20046;-48
2021/05/24 11:07:25;;;;;;;0.00;0.00;;;15.70;81.80;;;;;;4157987;28;20136;-47
2021/05/24 11:09:49;;;;;;;0.00;0.00;;;15.70;81.80;;;;;;4157651;28;20061;-49
2021/05/24 11:12:11;;;;;;;0.00;0.00;;;15.70;81.80;;;;;;4173776;28;20499;-49
2021/05/24 11:15:06;;;;;;;0.00;0.00;;;15.70;81.80;;;;;;4174311;28;20068;-50
2021/05/24 11:18:07;;;;;;;0.00;0.00;;;15.80;81.80;;;;;;4174225;28;20052;-49
2021/05/24 11:20:30;;;;;;;0.00;0.00;;;15.80;81.70;;;;;;4172049;28;20403;-47
2021/05/24 11:23:12;;;;;;;0.03;0.03;;;15.80;81.90;;;;;;4174292;28;20049;-48
2021/05/24 11:25:55;;;;;;;0.00;0.00;;;15.80;82.10;;;;;;4171616;28;20072;-48
2021/05/24 11:28:19;;;;;;;0.00;0.00;;;15.80;83.30;;;;;;4171871;28;20110;-46
2021/05/24 11:30:42;;;;;;;0.00;0.00;;;16.00;82.90;;;;;;4163737;28;20053;-50
2021/05/24 11:33:24;;;;;;;7.65;0.80;;;15.90;82.70;;;;;;4172747;28;20057;-48
2021/05/24 11:35:52;;;;;;;10.02;3.60;;;16.00;82.70;;;;;;4157740;28;20049;-48
2021/05/24 11:38:27;;;;;;;1.17;1.00;;;16.00;82.70;;;;;;4177223;28;20494;-49
2021/05/24 11:41:10;;;;;;;0.00;0.00;;;16.00;82.80;;;;;;4176725;28;20052;-46
2021/05/24 11:43:31;;;;;;;0.00;0.00;;;16.00;82.50;;;;;;4176902;28;20083;-44
2021/05/24 11:45:53;;;;;;;0.00;0.00;;;16.00;82.40;;;;;;4177001;28;20048;-46
2021/05/24 11:48:14;;;;;;;0.00;0.00;;;16.00;82.30;;;;;;4176999;28;20095;-52
2021/05/24 11:50:36;;;;;;;1.08;1.08;;;16.00;82.30;;;;;;4176850;28;20045;-53
2021/05/24 11:52:59;;;;;;;0.00;0.00;;;16.00;82.30;;;;;;4177236;28;20049;-47
2021/05/24 11:55:21;;;;;;;0.00;0.00;;;15.90;82.30;;;;;;4176398;28;20057;-50
2021/05/24 11:57:43;;;;;;;0.00;0.00;;;16.00;82.30;;;;;;4177062;28;20055;-48
2021/05/24 12:00:09;;;;;;;0.20;0.20;;;16.00;82.30;;;;;;4177135;28;20051;-48
2021/05/24 12:02:34;;;;;;;0.20;0.20;;;16.00;82.20;;;;;;4177062;28;20052;-51
2021/05/24 12:04:56;;;;;;;0.00;0.00;;;16.00;82.10;;;;;;4160503;28;20500;-47
2021/05/24 12:07:19;;;;;;;;;;;16.00;82.00;;;;;;4161171;28;20057;-49
2021/05/24 12:09:50;;;;;;;0.35;0.35;;;16.00;82.00;;;;;;4160043;28;19925;-48
2021/05/24 12:12:14;;;;;;;5.15;2.45;;;16.00;82.00;;;;;;4163890;28;20482;-48
2021/05/24 12:14:38;;;;;;;0.63;0.63;;;16.00;82.00;;;;;;4177078;28;20563;-48
2021/05/24 12:16:59;;;;;;;1.48;1.38;;;16.00;82.20;;;;;;4174965;28;20057;-49
2021/05/24 12:19:23;;;;;;;0.00;0.00;;;16.00;83.00;;;;;;4176877;28;20051;-47
2021/05/24 12:21:46;;;;;;;0.00;0.00;;;16.00;82.30;;;;;;4176686;28;20140;-48
2021/05/24 12:24:10;;;;;;;0.00;0.00;;;16.00;82.10;;;;;;4164576;28;20462;-45
2021/05/24 12:26:32;;;;;;;0.00;0.00;;;16.00;82.10;;;;;;4160271;28;20041;-47
2021/05/24 12:28:55;;;;;;;0.08;0.08;;;16.00;82.10;;;;;;4160230;28;20049;-46